Time;durP1;ratioP1;P1;durP2;ratioP2;P2;SDS_P1;SDS_P2;PMS_P1;PMS_P2;Temp;Humidity;BMP_temperature;BMP_pressure;BME280_temperature;BME280_humidity;BME280_pressure;Samples;Min_cycle;Max_cycle;Signal;HPM_P1;HPM_P2
2023/11/21 00:01:08;;;;;;;5.75;2.92;;;;;;;10.33;83.39;100090.75;4986376;28;20516;-46
2023/11/21 00:03:35;;;;;;;8.98;3.90;;;;;;;10.34;82.88;100099.38;4983921;28;20480;-48
2023/11/21 00:06:03;;;;;;;6.63;3.05;;;;;;;10.34;83.60;100095.03;4982406;28;20061;-44
2023/11/21 00:08:30;;;;;;;7.55;3.67;;;;;;;10.39;83.46;100102.81;4977266;28;20054;-48
2023/11/21 00:10:56;;;;;;;5.53;2.70;;;;;;;10.35;83.80;100111.44;4985206;28;20062;-40
2023/11/21 00:13:24;;;;;;;5.25;2.92;;;;;;;10.33;83.31;100118.38;4983842;28;20302;-48
2023/11/21 00:15:51;;;;;;;9.38;4.45;;;;;;;10.42;82.76;100108.00;4981510;28;20096;-45
2023/11/21 00:18:17;;;;;;;7.07;3.17;;;;;;;10.41;82.52;100121.81;4981827;28;20058;-44
2023/11/21 00:20:46;;;;;;;8.10;3.75;;;;;;;10.45;83.36;100126.16;4979825;28;20049;-46
2023/11/21 00:23:13;;;;;;;4.68;2.55;;;;;;;10.39;83.36;100129.59;4984866;28;20042;-47
2023/11/21 00:25:40;;;;;;;6.97;3.08;;;;;;;10.43;83.51;100143.38;4983205;28;20050;-44
2023/11/21 00:28:07;;;;;;;6.72;3.50;;;;;;;10.46;82.92;100151.19;4979863;28;20050;-48
2023/11/21 00:30:36;;;;;;;8.45;3.47;;;;;;;10.41;83.51;100158.06;4980966;28;20073;-50
2023/11/21 00:33:04;;;;;;;5.05;2.67;;;;;;;10.40;82.62;100141.66;4982296;28;20070;-49
2023/11/21 00:35:31;;;;;;;3.85;2.55;;;;;;;10.33;82.66;100150.28;4979180;28;20132;-48
2023/11/21 00:37:58;;;;;;;5.30;3.10;;;;;;;10.38;82.06;100148.56;4976785;28;20073;-47
2023/11/21 00:40:25;;;;;;;5.55;2.60;;;;;;;10.42;82.57;100154.59;4978493;28;20064;-45
2023/11/21 00:42:51;;;;;;;5.38;3.38;;;;;;;10.39;82.41;100157.19;4977391;28;20261;-43
2023/11/21 00:45:18;;;;;;;3.38;2.30;;;;;;;10.40;82.54;100166.69;4980370;28;20061;-43
2023/11/21 00:47:44;;;;;;;6.13;3.45;;;;;;;10.42;81.64;100159.78;4977371;28;20042;-45
2023/11/21 00:50:11;;;;;;;4.45;3.25;;;;;;;10.41;82.19;100163.25;4975245;28;20051;-44
2023/11/21 00:52:38;;;;;;;4.80;2.95;;;;;;;10.41;81.22;100163.25;4982553;28;20046;-47
2023/11/21 00:55:07;;;;;;;4.20;2.53;;;;;;;10.35;81.78;100165.81;4986920;28;20140;-50
2023/11/21 00:57:35;;;;;;;4.47;2.75;;;;;;;10.31;82.29;100164.09;4988396;28;20070;-45
2023/11/21 01:00:07;;;;;;;3.72;2.25;;;;;;;10.24;82.38;100166.66;4985271;28;20096;-49
2023/11/21 01:02:35;;;;;;;5.40;2.00;;;;;;;10.25;81.99;100183.94;4982890;28;20456;-46
2023/11/21 01:05:03;;;;;;;3.03;1.98;;;;;;;10.29;81.62;100184.81;4987706;28;20057;-47
2023/11/21 01:07:30;;;;;;;2.85;1.85;;;;;;;10.29;80.56;100180.50;4988782;28;20050;-45
2023/11/21 01:09:58;;;;;;;3.33;1.02;;;;;;;10.21;81.10;100190.00;4989786;28;20718;-47
2023/11/21 01:12:25;;;;;;;3.17;1.98;;;;;;;10.21;80.55;100192.59;4987114;28;20055;-48
2023/11/21 01:14:53;;;;;;;2.17;1.45;;;;;;;10.16;80.63;100199.47;4983831;28;20439;-47
2023/11/21 01:17:22;;;;;;;4.15;1.42;;;;;;;10.18;80.10;100207.22;4978256;28;20105;-45
2023/11/21 01:19:49;;;;;;;2.22;1.45;;;;;;;10.20;79.67;100203.78;4987250;28;20084;-49
2023/11/21 01:22:16;;;;;;;2.17;1.08;;;;;;;10.14;80.73;100214.13;4988311;28;20046;-50
2023/11/21 01:24:43;;;;;;;2.17;1.92;;;;;;;10.11;80.17;100211.53;4987184;28;20046;-47
2023/11/21 01:27:09;;;;;;;2.38;1.77;;;;;;;10.07;79.89;100227.91;4987369;28;20050;-50
2023/11/21 01:29:37;;;;;;;2.75;1.23;;;;;;;10.02;79.27;100217.56;4985397;28;20096;-48
2023/11/21 01:32:03;;;;;;;2.30;1.13;;;;;;;9.98;80.05;100219.28;4984760;28;20054;-47
2023/11/21 01:34:30;;;;;;;2.05;1.70;;;;;;;9.97;79.89;100238.22;4985427;28;20050;-51
2023/11/21 01:36:57;;;;;;;2.40;1.20;;;;;;;10.05;79.73;100242.56;4993561;28;20070;-49
2023/11/21 01:39:25;;;;;;;2.30;1.63;;;;;;;10.02;79.49;100233.94;4991417;28;20043;-49
2023/11/21 01:41:52;;;;;;;2.17;1.40;;;;;;;9.97;79.43;100252.91;4989137;28;20042;-46
2023/11/21 01:44:19;;;;;;;2.80;0.80;;;;;;;9.98;78.79;100262.41;4988370;28;20492;-43
2023/11/21 01:46:47;;;;;;;2.13;0.93;;;;;;;10.00;79.64;100256.34;4989526;28;20043;-46
2023/11/21 01:49:15;;;;;;;1.65;1.25;;;;;;;9.99;79.28;100264.13;4988384;28;20046;-49
2023/11/21 01:51:45;;;;;;;2.03;1.23;;;;;;;9.98;79.32;100258.09;4979082;28;20051;-46
2023/11/21 01:54:12;;;;;;;2.33;1.42;;;;;;;10.00;79.17;100271.88;4987780;28;20047;-44
2023/11/21 01:56:46;;;;;;;1.20;0.70;;;;;;;9.88;79.23;100277.03;4990341;28;20101;-44
2023/11/21 01:59:20;;;;;;;1.13;0.70;;;;;;;9.90;79.11;100283.09;4983366;28;20057;-43
2023/11/21 02:01:47;;;;;;;3.75;0.75;;;;;;;9.90;79.42;100276.16;4985306;28;20523;-44
2023/11/21 02:04:14;;;;;;;1.10;0.77;;;;;;;9.84;79.19;100280.47;4986443;28;20404;-43
2023/11/21 02:06:41;;;;;;;1.92;1.67;;;;;;;9.90;78.90;100277.91;4981126;28;20740;-45
2023/11/21 02:09:08;;;;;;;1.73;1.38;;;;;;;9.83;78.39;100276.16;4986280;28;20100;-47
2023/11/21 02:11:35;;;;;;;1.05;0.88;;;;;;;9.86;78.34;100278.75;4984377;28;20046;-42
2023/11/21 02:14:03;;;;;;;2.38;1.10;;;;;;;9.90;78.89;100285.66;4978512;28;20125;-46
2023/11/21 02:16:31;;;;;;;1.50;0.90;;;;;;;9.89;78.61;100278.75;4983177;28;20070;-43
2023/11/21 02:18:59;;;;;;;2.30;0.93;;;;;;;9.88;78.54;100282.19;4987129;28;20719;-47
2023/11/21 02:21:25;;;;;;;0.52;0.45;;;;;;;9.85;78.45;100292.53;4988276;28;20042;-49
2023/11/21 02:23:52;;;;;;;1.48;0.82;;;;;;;9.81;78.01;100290.78;4987891;28;20046;-44
2023/11/21 02:26:20;;;;;;;1.45;0.60;;;;;;;9.82;78.03;100297.69;4972987;28;20061;-46
2023/11/21 02:28:47;;;;;;;1.20;0.85;;;;;;;9.76;78.48;100296.81;4985553;28;20054;-48
2023/11/21 02:31:14;;;;;;;1.27;1.13;;;;;;;9.79;78.61;100302.88;4984328;28;20640;-50
2023/11/21 02:33:42;;;;;;;1.15;0.77;;;;;;;9.72;78.44;100305.41;4982869;28;20145;-48
2023/11/21 02:36:09;;;;;;;0.73;0.55;;;;;;;9.62;77.98;100306.22;4988387;28;20065;-49
2023/11/21 02:38:35;;;;;;;1.70;0.68;;;;;;;9.62;77.93;100311.38;4988270;28;20060;-44
2023/11/21 02:41:04;;;;;;;0.93;0.70;;;;;;;9.63;77.64;100307.97;4990220;28;20069;-50
2023/11/21 02:43:30;;;;;;;1.63;0.80;;;;;;;9.62;77.48;100316.56;4991640;28;20514;-49
2023/11/21 02:45:57;;;;;;;0.98;0.95;;;;;;;9.56;77.84;100324.31;4985807;28;20086;-50
2023/11/21 02:48:25;;;;;;;0.95;0.73;;;;;;;9.49;77.08;100316.50;4990214;28;20057;-44
2023/11/21 02:50:53;;;;;;;1.50;0.40;;;;;;;9.59;77.82;100326.91;4984201;28;20051;-46
2023/11/21 02:53:20;;;;;;;0.85;0.80;;;;;;;9.57;77.44;100328.59;4984062;28;20109;-45
2023/11/21 02:55:46;;;;;;;1.10;1.00;;;;;;;9.58;77.09;100345.84;4989510;28;20369;-43
2023/11/21 02:58:13;;;;;;;3.63;1.33;;;;;;;9.58;77.13;100345.84;4989173;28;20054;-47
2023/11/21 03:00:41;;;;;;;2.13;1.25;;;;;;;9.58;77.05;100346.72;4984060;28;20129;-44
2023/11/21 03:03:08;;;;;;;1.33;0.65;;;;;;;9.66;77.72;100349.34;4972120;28;20062;-51
2023/11/21 03:05:36;;;;;;;1.05;0.68;;;;;;;9.60;77.24;100349.31;4979959;28;20061;-46
2023/11/21 03:08:03;;;;;;;1.52;1.10;;;;;;;9.56;76.90;100363.94;4988870;28;20046;-48
2023/11/21 03:10:30;;;;;;;1.27;0.95;;;;;;;9.52;76.46;100357.88;4988794;28;20070;-48
2023/11/21 03:12:57;;;;;;;0.90;0.55;;;;;;;9.54;76.58;100375.13;4993744;28;20096;-48
2023/11/21 03:15:24;;;;;;;1.08;0.50;;;;;;;9.59;76.29;100383.81;4987235;28;20077;-42
2023/11/21 03:17:51;;;;;;;0.80;0.47;;;;;;;9.56;76.75;100378.59;4984013;28;20055;-43
2023/11/21 03:20:17;;;;;;;2.15;0.52;;;;;;;9.55;76.39;100376.88;4983353;28;20049;-48
2023/11/21 03:22:44;;;;;;;0.63;0.43;;;;;;;9.48;76.29;100379.41;4986419;28;20057;-45
2023/11/21 03:25:11;;;;;;;0.40;0.35;;;;;;;9.44;76.27;100382.84;4985101;28;20050;-47
2023/11/21 03:27:39;;;;;;;0.70;0.52;;;;;;;9.47;76.01;100394.91;4985763;28;20050;-51
2023/11/21 03:30:08;;;;;;;0.57;0.52;;;;;;;9.42;76.18;100394.03;4985830;28;20038;-44
2023/11/21 03:32:35;;;;;;;1.00;0.90;;;;;;;9.46;75.50;100394.03;4988399;28;20456;-47
2023/11/21 03:35:03;;;;;;;0.52;0.45;;;;;;;9.46;75.99;100401.78;4988092;28;20046;-49
2023/11/21 03:37:30;;;;;;;1.58;1.02;;;;;;;9.42;75.74;100396.59;4984854;28;20047;-45
2023/11/21 03:39:57;;;;;;;1.30;1.20;;;;;;;9.39;75.54;100402.59;4983902;28;20043;-49
2023/11/21 03:42:26;;;;;;;4.70;0.98;;;;;;;9.39;75.82;100397.41;4992582;28;20042;-48
2023/11/21 03:44:53;;;;;;;1.38;0.70;;;;;;;9.33;75.51;100403.44;4988320;28;20475;-45
2023/11/21 03:47:20;;;;;;;1.23;0.63;;;;;;;9.35;75.47;100408.59;4986913;28;20074;-45
2023/11/21 03:49:47;;;;;;;0.60;0.60;;;;;;;9.34;75.57;100404.28;4988504;28;20058;-47
2023/11/21 03:52:13;;;;;;;2.38;0.82;;;;;;;9.37;75.32;100405.19;4987293;28;20050;-45
2023/11/21 03:54:40;;;;;;;3.38;0.52;;;;;;;9.38;75.76;100408.63;4988846;28;20054;-46
2023/11/21 03:57:07;;;;;;;1.30;0.73;;;;;;;9.37;75.12;100412.06;4990617;28;20058;-51
2023/11/21 03:59:34;;;;;;;0.52;0.30;;;;;;;9.37;75.15;100414.66;4989164;28;20061;-46
2023/11/21 04:02:00;;;;;;;1.83;1.15;;;;;;;9.32;75.50;100413.75;4981789;28;20555;-47
2023/11/21 04:04:27;;;;;;;1.35;1.23;;;;;;;9.34;75.32;100435.31;4986544;28;20053;-50
2023/11/21 04:06:54;;;;;;;1.92;0.85;;;;;;;9.28;75.17;100430.94;4990043;28;20057;-44
2023/11/21 04:09:21;;;;;;;2.78;0.73;;;;;;;9.25;75.21;100420.56;4988682;28;20547;-49
2023/11/21 04:11:48;;;;;;;0.63;0.60;;;;;;;9.20;74.94;100430.91;4989597;28;20078;-43
2023/11/21 04:14:14;;;;;;;2.33;0.93;;;;;;;9.26;75.34;100438.69;4987833;28;20042;-48
2023/11/21 04:16:41;;;;;;;0.68;0.30;;;;;;;9.22;75.37;100431.75;4987610;28;20054;-50
2023/11/21 04:19:14;;;;;;;2.25;0.40;;;;;;;9.25;75.04;100431.78;4987733;28;20462;-49
2023/11/21 04:21:42;;;;;;;0.55;0.43;;;;;;;9.21;74.74;100424.88;4988733;28;20073;-46
2023/11/21 04:24:09;;;;;;;0.60;0.30;;;;;;;9.19;74.29;100439.47;4983247;28;20085;-53
2023/11/21 04:26:36;;;;;;;2.78;0.65;;;;;;;9.20;74.44;100438.66;4988598;28;20054;-49
2023/11/21 04:29:04;;;;;;;0.85;0.85;;;;;;;9.20;74.70;100443.81;4988353;28;20061;-48
2023/11/21 04:31:31;;;;;;;0.98;0.68;;;;;;;9.21;74.73;100442.97;4984214;28;20165;-43
2023/11/21 04:33:58;;;;;;;0.98;0.73;;;;;;;9.20;74.92;100449.00;4983283;28;20046;-47
2023/11/21 04:36:26;;;;;;;2.80;0.85;;;;;;;9.24;74.12;100452.47;4987246;28;20137;-50
2023/11/21 04:38:52;;;;;;;1.10;1.10;;;;;;;9.17;74.81;100454.13;4988230;28;20047;-44
2023/11/21 04:41:19;;;;;;;0.75;0.63;;;;;;;9.19;73.90;100457.56;4987824;28;20078;-45
2023/11/21 04:43:46;;;;;;;1.75;0.93;;;;;;;9.19;74.57;100461.91;4986462;28;20058;-43
2023/11/21 04:46:13;;;;;;;2.20;1.10;;;;;;;9.21;74.49;100471.38;4984482;28;20056;-45
2023/11/21 04:48:40;;;;;;;0.98;0.95;;;;;;;9.24;74.18;100474.00;4989696;28;20044;-43
2023/11/21 04:51:07;;;;;;;1.35;1.25;;;;;;;9.24;74.43;100475.72;4987811;28;20061;-45
2023/11/21 04:53:34;;;;;;;0.80;0.55;;;;;;;9.22;74.72;100473.13;4988860;28;20068;-47
2023/11/21 04:56:01;;;;;;;0.80;0.55;;;;;;;9.23;74.45;100474.84;4987880;28;20050;-47
2023/11/21 04:58:28;;;;;;;0.80;0.70;;;;;;;9.21;74.49;100470.50;4986018;28;20042;-45
2023/11/21 05:00:55;;;;;;;1.33;0.40;;;;;;;9.18;74.83;100471.34;4986292;28;20455;-45
2023/11/21 05:03:23;;;;;;;1.33;1.02;;;;;;;9.19;74.63;100472.22;4988550;28;20488;-50
2023/11/21 05:05:51;;;;;;;0.75;0.68;;;;;;;9.19;74.58;100465.31;4986539;28;20050;-42
2023/11/21 05:08:18;;;;;;;0.75;0.75;;;;;;;9.19;74.68;100467.91;4987726;28;20050;-48
2023/11/21 05:10:45;;;;;;;1.10;1.08;;;;;;;9.18;74.73;100471.34;4985500;28;20046;-48
2023/11/21 05:13:12;;;;;;;0.73;0.32;;;;;;;9.18;74.46;100479.09;4988770;28;20050;-48
2023/11/21 05:15:39;;;;;;;0.95;0.75;;;;;;;9.16;74.75;100483.41;4984614;28;20061;-43
2023/11/21 05:18:06;;;;;;;2.78;0.47;;;;;;;9.19;74.89;100487.75;4988174;28;20053;-46
2023/11/21 05:20:33;;;;;;;2.13;0.82;;;;;;;9.21;74.52;100499.81;4982798;28;20117;-43
2023/11/21 05:23:00;;;;;;;1.92;0.52;;;;;;;9.23;74.82;100500.69;4991200;28;20558;-53
2023/11/21 05:25:27;;;;;;;1.25;1.23;;;;;;;9.22;74.52;100509.31;4977867;28;20046;-46
2023/11/21 05:27:55;;;;;;;0.70;0.60;;;;;;;9.22;74.82;100503.28;4991418;28;20058;-48
2023/11/21 05:30:22;;;;;;;1.25;0.63;;;;;;;9.22;74.59;100504.13;4991595;28;20042;-44
2023/11/21 05:32:49;;;;;;;1.60;1.08;;;;;;;9.24;74.08;100507.63;4983441;28;20100;-49
2023/11/21 05:35:16;;;;;;;0.45;0.45;;;;;;;9.25;74.77;100514.50;4988597;28;20130;-45
2023/11/21 05:37:45;;;;;;;0.45;0.45;;;;;;;9.22;74.91;100517.06;4986295;28;20700;-45
2023/11/21 05:40:13;;;;;;;0.47;0.40;;;;;;;9.14;75.18;100516.09;4982765;28;20140;-48
2023/11/21 05:42:40;;;;;;;3.55;0.90;;;;;;;9.15;75.34;100517.84;4988003;28;20046;-42
2023/11/21 05:45:11;;;;;;;3.35;1.52;;;;;;;9.16;74.97;100524.75;4984264;28;20054;-46
2023/11/21 05:47:41;;;;;;;0.68;0.50;;;;;;;9.15;74.66;100522.16;4990770;28;20491;-46
2023/11/21 05:50:12;;;;;;;1.25;0.52;;;;;;;9.10;75.60;100515.22;4985204;28;20050;-49
2023/11/21 05:52:39;;;;;;;0.63;0.52;;;;;;;9.09;75.53;100533.28;4979792;28;20047;-49
2023/11/21 05:55:08;;;;;;;1.13;0.50;;;;;;;9.15;75.48;100527.31;4979986;28;20054;-45
2023/11/21 05:57:36;;;;;;;1.33;0.57;;;;;;;9.18;75.26;100533.38;4985210;28;20050;-45
2023/11/21 06:00:21;;;;;;;1.63;0.32;;;;;;;9.19;75.47;100540.28;4988239;28;20050;-48
2023/11/21 06:02:52;;;;;;;0.50;0.50;;;;;;;9.14;75.63;100539.38;4984419;28;20515;-41
2023/11/21 06:05:20;;;;;;;0.93;0.77;;;;;;;9.17;75.87;100547.16;4991616;28;20058;-49
2023/11/21 06:07:47;;;;;;;1.10;0.93;;;;;;;9.18;75.54;100554.06;4983651;28;20046;-49
2023/11/21 06:10:14;;;;;;;0.73;0.63;;;;;;;9.16;75.81;100549.72;4988915;28;20045;-47
2023/11/21 06:12:42;;;;;;;0.85;0.65;;;;;;;9.15;75.44;100556.59;4985968;28;20050;-49
2023/11/21 06:15:13;;;;;;;0.55;0.30;;;;;;;9.17;75.85;100562.66;4985606;28;20100;-44
2023/11/21 06:17:42;;;;;;;1.02;0.43;;;;;;;9.15;75.57;100564.34;4986087;28;20057;-47
2023/11/21 06:20:11;;;;;;;1.60;0.50;;;;;;;9.13;76.16;100579.00;4990708;28;20639;-45
2023/11/21 06:22:40;;;;;;;2.05;1.05;;;;;;;9.04;77.10;100591.78;4986571;28;20455;-45
2023/11/21 06:25:08;;;;;;;1.10;0.98;;;;;;;9.06;76.70;100584.94;4986642;28;20057;-45
2023/11/21 06:27:42;;;;;;;1.65;0.35;;;;;;;9.06;77.05;100592.69;4982690;28;20065;-45
2023/11/21 06:30:09;;;;;;;0.57;0.30;;;;;;;9.04;77.84;100595.25;4986574;28;20137;-46
2023/11/21 06:32:36;;;;;;;1.25;0.80;;;;;;;9.05;77.89;100603.88;4989168;28;20042;-51
2023/11/21 06:35:04;;;;;;;1.23;0.77;;;;;;;9.01;77.82;100602.94;4978260;28;20519;-44
2023/11/21 06:37:32;;;;;;;0.82;0.55;;;;;;;8.98;78.02;100597.75;4979292;28;20051;-50
2023/11/21 06:40:00;;;;;;;0.43;0.38;;;;;;;8.93;78.80;100600.28;4977725;28;20041;-45
2023/11/21 06:42:28;;;;;;;1.48;1.15;;;;;;;8.90;79.06;100613.16;4986912;28;20043;-50
2023/11/21 06:44:57;;;;;;;1.10;0.95;;;;;;;8.93;78.80;100604.56;4985124;28;20415;-44
2023/11/21 06:47:25;;;;;;;1.27;0.85;;;;;;;8.91;79.02;100617.47;4987091;28;20129;-45
2023/11/21 06:49:53;;;;;;;0.68;0.57;;;;;;;8.93;78.69;100610.63;4987942;28;20046;-46
2023/11/21 06:52:23;;;;;;;0.55;0.35;;;;;;;8.92;79.02;100616.63;4989722;28;20050;-50
2023/11/21 06:54:50;;;;;;;0.70;0.63;;;;;;;8.87;79.24;100616.56;4990740;28;20632;-43
2023/11/21 06:57:17;;;;;;;0.47;0.45;;;;;;;8.88;79.29;100622.59;4993576;28;20077;-49
2023/11/21 06:59:44;;;;;;;0.85;0.75;;;;;;;8.89;79.36;100632.09;4991086;28;20061;-43
2023/11/21 07:02:10;;;;;;;1.02;0.93;;;;;;;8.86;79.86;100626.88;4988521;28;20475;-48
2023/11/21 07:04:37;;;;;;;2.08;0.88;;;;;;;8.86;79.87;100639.81;4989057;28;20519;-48
2023/11/21 07:07:06;;;;;;;1.38;1.27;;;;;;;8.85;80.35;100635.50;4987894;28;20138;-46
2023/11/21 07:09:33;;;;;;;1.92;1.77;;;;;;;8.84;79.74;100651.81;4986372;28;20058;-52
2023/11/21 07:12:01;;;;;;;3.10;1.10;;;;;;;8.84;80.32;100646.66;4986151;28;20482;-49
2023/11/21 07:14:28;;;;;;;0.85;0.55;;;;;;;8.80;80.65;100656.09;4987952;28;20042;-49
2023/11/21 07:16:54;;;;;;;0.90;0.63;;;;;;;8.83;80.72;100660.41;4988106;28;20050;-44
2023/11/21 07:19:22;;;;;;;1.63;0.40;;;;;;;8.81;81.04;100652.63;4988853;28;20050;-46
2023/11/21 07:21:51;;;;;;;1.25;1.15;;;;;;;8.83;80.51;100650.09;4982717;28;20046;-49
2023/11/21 07:24:18;;;;;;;1.13;1.02;;;;;;;8.79;81.30;100664.69;4981380;28;20046;-49
2023/11/21 07:26:45;;;;;;;1.85;1.20;;;;;;;8.83;80.93;100668.16;4983579;28;20484;-45
2023/11/21 07:29:11;;;;;;;1.67;1.15;;;;;;;8.84;80.74;100670.78;4984831;28;20125;-46
2023/11/21 07:31:38;;;;;;;1.75;1.17;;;;;;;8.84;80.85;100669.91;4986349;28;20688;-45
2023/11/21 07:34:05;;;;;;;1.45;0.85;;;;;;;8.82;81.39;100684.53;4989718;28;20408;-46
2023/11/21 07:36:32;;;;;;;1.42;1.05;;;;;;;8.85;80.94;100689.72;4988675;28;20054;-50
2023/11/21 07:38:59;;;;;;;1.75;1.48;;;;;;;8.79;81.43;100679.31;4994412;28;20042;-46
2023/11/21 07:41:26;;;;;;;1.95;1.35;;;;;;;8.83;81.63;100696.59;4988444;28;20042;-46
2023/11/21 07:43:57;;;;;;;1.85;1.20;;;;;;;8.80;81.91;100696.53;4982513;28;20051;-46
2023/11/21 07:46:26;;;;;;;2.45;2.03;;;;;;;8.82;81.73;100705.19;4988086;28;20045;-46
2023/11/21 07:48:54;;;;;;;1.50;0.95;;;;;;;8.82;82.15;100715.50;4980687;28;20055;-47
2023/11/21 07:51:22;;;;;;;2.33;0.90;;;;;;;8.80;82.62;100712.03;4982817;28;20158;-44
2023/11/21 07:53:49;;;;;;;1.52;0.80;;;;;;;8.82;82.13;100716.38;4986230;28;20059;-50
2023/11/21 07:56:16;;;;;;;1.90;1.48;;;;;;;8.83;82.08;100718.13;4990089;28;20058;-48
2023/11/21 07:58:44;;;;;;;3.42;1.23;;;;;;;8.84;82.41;100721.56;4988979;28;20508;-44
2023/11/21 08:01:11;;;;;;;2.42;1.38;;;;;;;8.81;83.00;100721.53;4984630;28;20058;-51
2023/11/21 08:03:38;;;;;;;1.23;0.82;;;;;;;8.87;82.82;100731.94;4980867;28;20076;-47
2023/11/21 08:06:06;;;;;;;1.40;1.30;;;;;;;8.84;83.03;100731.88;4985952;28;20097;-44
2023/11/21 08:08:33;;;;;;;1.52;0.75;;;;;;;8.83;83.12;100732.75;4984652;28;20729;-46
2023/11/21 08:11:01;;;;;;;0.85;0.73;;;;;;;8.89;83.21;100737.13;4983281;28;20101;-47
2023/11/21 08:13:30;;;;;;;1.35;1.25;;;;;;;8.87;83.69;100743.16;4984338;28;20058;-47
2023/11/21 08:16:02;;;;;;;1.25;0.50;;;;;;;8.93;83.19;100738.91;4984187;28;20038;-52
2023/11/21 08:18:29;;;;;;;0.98;0.88;;;;;;;8.88;84.14;100749.16;4981546;28;20054;-48
2023/11/21 08:20:57;;;;;;;2.03;0.68;;;;;;;8.92;83.93;100748.38;4984151;28;20496;-41
2023/11/21 08:23:28;;;;;;;1.55;1.15;;;;;;;8.95;83.78;100761.34;4984495;28;20125;-45
2023/11/21 08:25:55;;;;;;;1.13;0.98;;;;;;;8.99;83.99;100762.28;4984994;28;20042;-44
2023/11/21 08:28:25;;;;;;;1.08;0.95;;;;;;;9.02;84.05;100769.22;4986522;28;20058;-45
2023/11/21 08:30:54;;;;;;;1.13;0.73;;;;;;;9.05;83.85;100769.25;4979019;28;20046;-49
2023/11/21 08:33:21;;;;;;;0.95;0.55;;;;;;;9.04;84.07;100772.66;4984405;28;20121;-49
2023/11/21 08:35:48;;;;;;;0.93;0.88;;;;;;;9.09;83.99;100783.97;4989974;28;20046;-46
2023/11/21 08:38:15;;;;;;;1.35;1.25;;;;;;;9.11;83.96;100790.00;4987202;28;20049;-49
2023/11/21 08:40:42;;;;;;;1.02;0.93;;;;;;;9.11;84.03;100806.38;4986135;28;20086;-48
2023/11/21 08:43:09;;;;;;;1.23;1.13;;;;;;;9.15;83.77;100807.28;4982455;28;20058;-46
2023/11/21 08:45:35;;;;;;;0.90;0.68;;;;;;;9.15;84.18;100812.47;4978943;28;20142;-52
2023/11/21 08:48:02;;;;;;;1.13;1.02;;;;;;;9.18;84.22;100807.34;4962182;28;20047;-48
2023/11/21 08:50:29;;;;;;;0.80;0.80;;;;;;;9.18;84.38;100828.03;4966461;28;20424;-46
2023/11/21 08:52:56;;;;;;;0.80;0.68;;;;;;;9.23;84.09;100830.69;4963778;28;20050;-49
2023/11/21 08:55:22;;;;;;;1.58;0.50;;;;;;;9.21;84.06;100824.63;4966618;28;20687;-48
2023/11/21 08:57:50;;;;;;;1.15;0.40;;;;;;;9.14;84.72;100828.81;4969005;28;20116;-49
2023/11/21 09:00:18;;;;;;;0.50;0.32;;;;;;;9.23;84.25;100841.88;4961091;28;20051;-47
2023/11/21 09:02:45;;;;;;;0.65;0.65;;;;;;;9.24;83.92;100841.06;4964476;28;20043;-47
2023/11/21 09:05:14;;;;;;;0.52;0.43;;;;;;;9.18;84.30;100847.84;4962614;28;20057;-53
2023/11/21 09:07:42;;;;;;;0.47;0.30;;;;;;;9.25;84.12;100850.53;4963813;28;20097;-50
2023/11/21 09:10:09;;;;;;;1.23;1.13;;;;;;;9.22;84.40;100855.66;4979765;28;20050;-43
2023/11/21 09:12:37;;;;;;;0.73;0.50;;;;;;;9.24;84.48;100864.31;4962214;28;20517;-52
2023/11/21 09:15:05;;;;;;;0.57;0.50;;;;;;;9.24;84.39;100866.91;4967532;28;20126;-44
2023/11/21 09:17:34;;;;;;;0.82;0.55;;;;;;;9.24;84.22;100871.19;4967750;28;20061;-48
2023/11/21 09:20:05;;;;;;;0.88;0.73;;;;;;;9.23;84.49;100880.66;4965960;28;20046;-51
2023/11/21 09:22:32;;;;;;;3.92;0.85;;;;;;;9.27;84.18;100879.00;4964943;28;20146;-51
2023/11/21 09:24:59;;;;;;;1.17;1.08;;;;;;;9.30;84.19;100888.53;4964042;28;20078;-45
2023/11/21 09:27:26;;;;;;;1.17;0.80;;;;;;;9.33;83.89;100893.75;4965801;28;20678;-47
2023/11/21 09:29:53;;;;;;;1.27;1.08;;;;;;;9.35;83.48;100902.38;4969658;28;20078;-50
2023/11/21 09:32:21;;;;;;;1.50;0.93;;;;;;;9.38;83.44;100912.78;4960575;28;20404;-46
2023/11/21 09:34:49;;;;;;;1.48;0.93;;;;;;;9.33;83.89;100914.44;4961613;28;20409;-47
2023/11/21 09:37:16;;;;;;;0.70;0.40;;;;;;;9.31;83.93;100921.28;4966836;28;20487;-45
2023/11/21 09:39:47;;;;;;;1.33;0.65;;;;;;;9.28;84.12;100906.59;4967631;28;20130;-50
2023/11/21 09:42:25;;;;;;;2.45;1.00;;;;;;;9.22;83.61;100911.69;4967816;28;20113;-49
2023/11/21 09:47:28;;;;;;;1.85;0.80;;;;;;;9.23;83.80;100924.59;5041146;27;20413;-46
2023/11/21 09:50:01;;;;;;;0.98;0.60;;;;;;;9.32;83.32;100925.63;5028847;28;20057;-47
2023/11/21 09:52:28;;;;;;;1.48;1.00;;;;;;;9.24;83.05;100926.38;5025164;28;20076;-46
2023/11/21 09:55:00;;;;;;;2.05;1.65;;;;;;;9.21;82.93;100925.41;5024790;28;20093;-46
2023/11/21 09:57:27;;;;;;;1.67;0.88;;;;;;;9.19;83.41;100927.97;5025230;28;20045;-42
2023/11/21 09:59:58;;;;;;;1.77;0.52;;;;;;;9.15;83.54;100931.34;5015911;28;20050;-50
2023/11/21 10:02:30;;;;;;;1.25;0.70;;;;;;;9.25;82.73;100925.50;5031585;28;20041;-44
2023/11/21 10:05:00;;;;;;;1.33;0.65;;;;;;;9.28;82.55;100931.59;5024813;28;20049;-49
2023/11/21 10:07:29;;;;;;;3.05;1.35;;;;;;;9.25;82.65;100941.03;5018556;28;20057;-42
2023/11/21 10:09:58;;;;;;;1.38;0.90;;;;;;;9.25;82.02;100943.59;5033089;28;20049;-49
2023/11/21 10:12:27;;;;;;;0.40;0.30;;;;;;;9.24;82.12;100947.03;5048014;28;20100;-45
2023/11/21 10:14:55;;;;;;;2.28;0.68;;;;;;;9.23;82.09;100959.94;5038287;28;20506;-46
2023/11/21 10:17:25;;;;;;;0.80;0.73;;;;;;;9.21;81.95;100956.44;5038493;28;20144;-47
2023/11/21 10:19:53;;;;;;;;;;;;;;;9.16;81.84;100969.31;5036105;28;20660;-43
2023/11/21 10:22:20;;;;;;;1.63;0.80;;;;;;;9.28;81.92;100972.94;5039322;28;20398;-48
2023/11/21 10:24:48;;;;;;;0.93;0.75;;;;;;;9.28;81.60;100975.53;5038635;28;20046;-48
2023/11/21 10:27:19;;;;;;;0.98;0.55;;;;;;;9.24;81.24;100979.75;5042114;28;20056;-41
2023/11/21 10:29:46;;;;;;;0.88;0.68;;;;;;;9.32;81.17;100985.09;5036041;28;20057;-46
2023/11/21 10:32:13;;;;;;;1.83;0.60;;;;;;;9.32;80.94;100990.25;5040418;28;20052;-51
2023/11/21 10:34:41;;;;;;;2.65;1.23;;;;;;;9.32;80.62;101005.78;5034527;28;20064;-45
2023/11/21 10:37:12;;;;;;;0.65;0.40;;;;;;;9.32;80.87;101000.59;5038553;28;20054;-49
2023/11/21 10:39:39;;;;;;;3.70;1.42;;;;;;;9.35;80.23;101011.84;5033832;28;20671;-47
2023/11/21 10:42:10;;;;;;;2.33;0.73;;;;;;;9.40;80.17;101019.69;5040607;28;20609;-47
2023/11/21 10:44:37;;;;;;;2.65;0.77;;;;;;;9.38;80.71;101022.25;5036708;28;20049;-47
2023/11/21 10:47:05;;;;;;;2.75;0.52;;;;;;;9.41;80.64;101021.44;5042533;28;20041;-44
2023/11/21 10:49:32;;;;;;;1.65;0.28;;;;;;;9.40;80.03;101017.13;5028130;28;20514;-47
2023/11/21 10:51:59;;;;;;;0.50;0.20;;;;;;;9.45;80.14;101012.88;5037980;28;20047;-51
2023/11/21 10:54:28;;;;;;;3.92;0.73;;;;;;;9.42;79.63;101012.81;5042978;28;20053;-54
2023/11/21 10:56:59;;;;;;;2.03;0.55;;;;;;;9.49;79.39;101022.44;5035595;28;20046;-48
2023/11/21 10:59:30;;;;;;;1.52;1.42;;;;;;;9.49;79.56;101025.03;5019346;28;20288;-46
2023/11/21 11:02:00;;;;;;;1.77;1.08;;;;;;;9.49;79.44;101025.03;5024001;28;20463;-44
2023/11/21 11:04:28;;;;;;;3.53;0.70;;;;;;;9.54;79.35;101038.03;5022294;28;20072;-48
2023/11/21 11:06:57;;;;;;;2.42;0.90;;;;;;;9.51;79.43;101041.44;5020821;28;20141;-46
2023/11/21 11:09:24;;;;;;;1.70;0.82;;;;;;;9.42;78.49;101043.84;5021839;28;20042;-49
2023/11/21 11:11:52;;;;;;;3.70;0.65;;;;;;;9.46;78.74;101034.47;5022588;28;20041;-47
2023/11/21 11:14:19;;;;;;;1.70;1.05;;;;;;;9.46;78.55;101044.81;5034751;28;20049;-45
2023/11/21 11:16:49;;;;;;;8.00;0.80;;;;;;;9.45;78.30;101041.31;5021768;28;20454;-50
2023/11/21 11:19:16;;;;;;;7.32;0.88;;;;;;;9.50;78.75;101051.75;5031385;28;20072;-43
2023/11/21 11:25:26;;;;;;;4.28;1.02;;;;;;;9.54;78.69;101057.84;5097745;27;20397;-53
2023/11/21 11:28:03;;;;;;;2.22;0.82;;;;;;;9.49;78.86;101063.81;5094084;28;20513;-50
2023/11/21 11:31:03;;;;;;;2.85;1.10;;;;;;;9.45;78.72;101059.44;5077816;28;20065;-52
2023/11/21 11:36:35;;;;;;;1.92;1.67;;;;;;;9.45;78.32;101079.25;5073425;27;20398;-44
2023/11/21 11:39:04;;;;;;;3.35;1.45;;;;;;;9.48;78.46;101085.34;5013712;28;20045;-47
2023/11/21 11:41:34;;;;;;;5.07;1.92;;;;;;;9.55;79.14;101090.66;5051497;28;20045;-47
2023/11/21 11:44:01;;;;;;;8.18;1.90;;;;;;;9.49;79.03;101087.09;5021508;28;20050;-48